Siloam Springs, AR

05:31 CDT je la 02an de septembro 2015 (GMT -0500)
Lake Forrest Heights | | Change Station
CLOSE
Current Station
Personaj Veter-Stacioj
Location: Siloam Springs, AR
Alteco: 1148 ft
Najbaraj veter-stacioj

Elev 1148 ft 36.22 °N, 94.54 °W | Updated 1 minute ago

Clear
Sennuba
68.5 °F
Sentas kiel 68.5 °F
N
0.0
Vento Varianta Vento from Nordo
Gusts 0.0 mej/h

hodiaŭ
High -- | Low -- °F
--% Ebla precip.
hieraŭ
High -- | Low -- °F
Precip. -- co
6:50 AM 7:44 PM
Malkreskanta Lunĝibo, 81% visible
Aerpremo 30.07 co
Vidodistanco 10.0 mejloj
Nuboj Sennuba
Rosopunkto 68 °F
Humido 99%
Pluvokvanto 0.00 co
Neĝprofundo Not available.
UV 0 out of 12
Pollen 10.30 out of 12
Aerkvalito Not available.
Flu Activity Not available.
METAR KSLG 021015Z AUTO 16004KT 10SM CLR 21/16 A3007 RMK AO1
Aerpremo 30.07 co
Vidodistanco 10.0 mejloj
Nuboj Sennuba
Rosopunkto 68 °F
Humido 99%
Pluvokvanto 0.00 co
Neĝprofundo Not available.
UV 0 out of 12
Pollen 10.30 out of 12
Aerkvalito Not available.
Flu Activity Not available.
METAR KSLG 021015Z AUTO 16004KT 10SM CLR 21/16 A3007 RMK AO1

10-Day Weather Forecast

×

Almanac

Astronomio

Sep. 02, 2015 Leviĝo Subiro
Aktuala tempo
Civila krepusko
Naŭtika krepusko
Astronomia krepusko
Luno
Daŭro de videbla lumo
Daŭro de tago
Tomorrow will be .
, % of the Moon is Illuminated

Hodiaŭaj ekstremaĵoj

State Highs State Lows

Community

WunderPhotos

Upload Photos

1,851,734 photos uploaded!

WunderBlogs® & News

Nearby

Aerkvalito

  Aerkvalito Aerkvalita indico Poluanto
Not available.

Neĝa profundeco

Station Depth Alteco

Earthquake Activity

Urbo Distance Mag. Time & Date
Minimum magnitude displayed is 2.5.

Coastal Water Temperatures

Loko Temperaturo

Stations

Najbaraj veter-stacioj

Loko de stacio Temp Venta
kvazaŭtemperaturo
Rosopunkto Humido Vento Precip. Elev Ĝisdatigita je Tipo